Aviation Digital Data Service (ADDS)

Output produced by METARs form (0203 UTC 22 April 2019)
found at http://www.aviationweather.gov/metar/data/
 
Forecast for: URWW (VOLGOGRAD/GUMRAK, RU)
Text: TAF URWW 212258Z 2200/2209 07003G08MPS CAVOK
Forecast period: 0000 to 0900 UTC 22 April 2019
Forecast type: FROM: standard forecast or significant change
Winds: from the ENE (70 degrees) at 7 MPH (6 knots; 3.1 m/s)
gusting to 18 MPH (16 knots; 8.2 m/s)
Visibility: 6 or more miles 10+ km)
Ceiling: unknown
Clouds: missing
Weather: NSW  (no significant weather)
Text: TEMPO 2200/2206 04003MPS 3100 BR BKN011
Forecast period: 0000 to 0600 UTC 22 April 2019
Forecast type: TEMPORARY: The following changes expected for less than half the time period
Winds: from the NE (40 degrees) at 7 MPH (6 knots; 3.1 m/s)
Visibility: 1.93 miles (3.11 km)
Ceiling: 1100 feet AGL
Clouds: broken clouds at 1100 feet AGL
Weather: BR  (mist)
Text: TEMPO 2206/2209 04003G08MPS
Forecast period: 0600 to 0900 UTC 22 April 2019
Forecast type: TEMPORARY: The following changes expected for less than half the time period
Winds: from the NE (40 degrees) at 7 MPH (6 knots; 3.1 m/s)
gusting to 18 MPH (16 knots; 8.2 m/s)
Visibility: missing
Ceiling: unknown
Clouds: missing
Weather: no significant weather forecast for this period